Time;durP1;ratioP1;P1;durP2;ratioP2;P2;SDS_P1;SDS_P2;PMS_P1;PMS_P2;Temp;Humidity;BMP_temperature;BMP_pressure;BME280_temperature;BME280_humidity;BME280_pressure;Samples;Min_cycle;Max_cycle;Signal;HPM_P1;HPM_P2
2023/01/28 00:01:45;;;;;;;;;;;2.90;93.10;;;;;;5006832;28;19983;-81
2023/01/28 00:04:13;;;;;;;;;;;2.90;93.10;;;;;;5000040;28;20353;-77
2023/01/28 00:06:39;;;;;;;;;;;2.90;93.10;;;;;;5006663;28;19944;-77
2023/01/28 00:09:06;;;;;;;;;;;2.90;93.10;;;;;;5009416;28;19936;-78
2023/01/28 00:11:33;;;;;;;;;;;2.90;93.10;;;;;;5006653;28;19936;-78
2023/01/28 00:13:59;;;;;;;;;;;2.90;93.10;;;;;;5011779;28;19981;-79
2023/01/28 00:16:27;;;;;;;;;;;2.90;93.20;;;;;;5007361;28;19933;-78
2023/01/28 00:18:53;;;;;;;;;;;2.90;93.20;;;;;;5006347;28;19940;-78
2023/01/28 00:21:21;;;;;;;;;;;2.90;93.20;;;;;;5005619;28;19929;-79
2023/01/28 00:23:50;;;;;;;;;;;2.90;93.20;;;;;;5010696;28;19933;-78
2023/01/28 00:26:16;;;;;;;;;;;2.90;93.20;;;;;;5008388;28;19960;-79
2023/01/28 00:28:43;;;;;;;;;;;2.90;93.20;;;;;;5008385;28;20052;-79
2023/01/28 00:31:12;;;;;;;;;;;2.90;93.20;;;;;;5005393;28;20552;-79
2023/01/28 00:33:39;;;;;;;;;;;2.90;93.20;;;;;;5005199;28;19951;-78
2023/01/28 00:36:06;;;;;;;;;;;2.90;93.20;;;;;;5009522;28;19936;-79
2023/01/28 00:38:34;;;;;;;;;;;2.90;93.20;;;;;;5007572;28;19936;-78
2023/01/28 00:41:07;;;;;;;;;;;2.90;93.20;;;;;;5008799;28;19929;-79
2023/01/28 00:43:33;;;;;;;;;;;2.80;93.10;;;;;;5008187;28;19929;-78
2023/01/28 00:46:00;;;;;;;;;;;2.90;93.20;;;;;;5018241;28;19929;-79
2023/01/28 00:48:26;;;;;;;;;;;2.80;93.20;;;;;;5012513;28;19991;-79
2023/01/28 00:50:53;;;;;;;;;;;2.90;93.20;;;;;;5018406;28;20459;-79
2023/01/28 00:53:19;;;;;;;;;;;2.90;93.20;;;;;;5009301;28;19933;-78
2023/01/28 00:55:47;;;;;;;;;;;2.90;93.20;;;;;;5009485;28;19980;-79
2023/01/28 00:58:14;;;;;;;;;;;2.90;93.20;;;;;;5015616;28;19937;-78
2023/01/28 01:00:40;;;;;;;;;;;2.80;93.20;;;;;;5011893;28;19932;-78
2023/01/28 01:03:07;;;;;;;;;;;2.90;93.60;;;;;;5009140;28;19992;-78
2023/01/28 01:05:33;;;;;;;;;;;2.80;93.20;;;;;;5003826;28;19937;-78
2023/01/28 01:08:00;;;;;;;;;;;2.80;93.30;;;;;;5008607;28;20067;-79
2023/01/28 01:10:26;;;;;;;;;;;2.80;93.30;;;;;;5007928;28;19937;-78
2023/01/28 01:12:55;;;;;;;;;;;2.80;93.30;;;;;;5012628;28;19980;-79
2023/01/28 01:15:21;;;;;;;;;;;2.80;93.30;;;;;;5009990;28;20011;-78
2023/01/28 01:17:48;;;;;;;;;;;2.80;93.30;;;;;;5006826;28;20418;-78
2023/01/28 01:20:16;;;;;;;;;;;2.80;93.30;;;;;;5012242;28;20343;-79
2023/01/28 01:22:43;;;;;;;;;;;2.80;93.30;;;;;;5008598;28;19933;-77
2023/01/28 01:25:09;;;;;;;;;;;2.80;93.30;;;;;;5014570;28;19929;-78
2023/01/28 01:27:36;;;;;;;;;;;2.80;93.30;;;;;;5011684;28;19934;-79
2023/01/28 01:30:06;;;;;;;;;;;2.80;93.30;;;;;;5010293;28;19971;-79
2023/01/28 01:32:33;;;;;;;;;;;2.80;93.40;;;;;;5015641;28;19984;-79
2023/01/28 01:35:00;;;;;;;;;;;2.80;93.40;;;;;;5012682;28;20013;-79
2023/01/28 01:37:26;;;;;;;;;;;2.80;93.40;;;;;;5009838;28;19949;-79
2023/01/28 01:39:53;;;;;;;;;;;2.80;93.40;;;;;;5010259;28;20026;-78
2023/01/28 01:42:20;;;;;;;;;;;2.80;93.40;;;;;;5008060;28;19933;-79
2023/01/28 01:44:52;;;;;;;;;;;2.80;93.50;;;;;;5006509;28;19955;-78
2023/01/28 01:47:21;;;;;;;;;;;2.80;93.40;;;;;;5007737;28;19937;-78
2023/01/28 01:49:48;;;;;;;;;;;2.80;93.40;;;;;;5007842;28;19929;-79
2023/01/28 01:52:15;;;;;;;;;;;2.80;93.40;;;;;;5008801;28;19929;-79
2023/01/28 01:54:43;;;;;;;;;;;2.80;93.50;;;;;;5002101;28;19992;-78
2023/01/28 01:57:11;;;;;;;;;;;2.80;93.50;;;;;;5006655;28;19941;-79
2023/01/28 01:59:38;;;;;;;;;;;2.80;93.50;;;;;;5006142;28;19933;-79
2023/01/28 02:02:07;;;;;;;;;;;2.80;93.50;;;;;;5007817;28;20072;-79
2023/01/28 02:04:37;;;;;;;;;;;2.80;93.50;;;;;;5008581;28;19936;-78
2023/01/28 02:07:04;;;;;;;;;;;2.80;93.60;;;;;;5008106;28;19940;-81
2023/01/28 02:09:31;;;;;;;;;;;2.80;93.60;;;;;;5003824;28;20395;-79
2023/01/28 02:11:59;;;;;;;;;;;2.80;93.60;;;;;;5003725;28;20020;-78
2023/01/28 02:14:27;;;;;;;;;;;2.80;93.60;;;;;;5001609;28;20029;-78
2023/01/28 02:16:54;;;;;;;;;;;2.80;93.60;;;;;;5009509;28;19937;-79
2023/01/28 02:19:22;;;;;;;;;;;2.80;93.60;;;;;;5006961;28;19933;-79
2023/01/28 02:22:05;;;;;;;;;;;2.70;93.60;;;;;;5005788;28;19930;-80
2023/01/28 02:24:50;;;;;;;;;;;2.70;93.60;;;;;;5004830;28;19952;-78
2023/01/28 02:27:20;;;;;;;;;;;2.70;93.70;;;;;;5007668;28;19941;-78
2023/01/28 02:29:52;;;;;;;;;;;2.70;93.70;;;;;;5004530;28;19941;-78
2023/01/28 02:32:20;;;;;;;;;;;2.80;93.70;;;;;;5005848;28;19953;-80
2023/01/28 02:34:51;;;;;;;;;;;2.70;93.70;;;;;;5002984;28;19940;-79
2023/01/28 02:37:21;;;;;;;;;;;2.70;94.00;;;;;;5005666;28;19949;-81
2023/01/28 02:39:48;;;;;;;;;;;2.70;93.70;;;;;;5004782;28;19934;-79
2023/01/28 02:42:17;;;;;;;;;;;2.70;93.80;;;;;;5006018;28;19928;-78
2023/01/28 02:44:44;;;;;;;;;;;2.70;93.80;;;;;;5004144;28;19984;-79
2023/01/28 02:49:58;;;;;;;;;;;2.70;93.80;;;;;;5004089;28;20331;-79
2023/01/28 02:55:23;;;;;;;;;;;2.70;93.80;;;;;;5007837;28;19975;-78
2023/01/28 02:58:03;;;;;;;;;;;2.70;93.80;;;;;;5008262;28;19944;-79
2023/01/28 03:00:33;;;;;;;;;;;2.70;93.80;;;;;;5009074;28;19952;-79
2023/01/28 03:03:06;;;;;;;;;;;2.70;93.80;;;;;;5004043;28;20481;-79
2023/01/28 03:05:35;;;;;;;;;;;2.70;93.80;;;;;;5004276;28;19930;-79
2023/01/28 03:09:21;;;;;;;;;;;2.70;93.80;;;;;;4999680;28;19936;-78
2023/01/28 03:38:32;;;;;;;;;;;2.70;93.90;;;;;;5003335;28;19940;-80
2023/01/28 03:41:00;;;;;;;;;;;2.70;94.00;;;;;;5000125;28;20286;-77
2023/01/28 03:43:26;;;;;;;;;;;2.70;94.00;;;;;;5003766;28;19933;-77
2023/01/28 03:45:54;;;;;;;;;;;2.70;94.00;;;;;;5002984;28;19933;-78
2023/01/28 03:48:22;;;;;;;;;;;2.70;94.00;;;;;;5002765;28;19964;-78
2023/01/28 03:50:50;;;;;;;;;;;2.70;94.00;;;;;;5002003;28;19998;-77
2023/01/28 03:53:16;;;;;;;;;;;2.70;94.00;;;;;;5002859;28;19937;-78
2023/01/28 03:55:43;;;;;;;;;;;2.70;94.10;;;;;;5001925;28;20012;-78
2023/01/28 03:58:10;;;;;;;;;;;2.70;94.10;;;;;;5004409;28;19929;-77
2023/01/28 04:00:40;;;;;;;;;;;2.70;94.10;;;;;;5004794;28;19937;-77
2023/01/28 04:03:14;;;;;;;;;;;2.70;94.10;;;;;;5004515;28;19929;-77
2023/01/28 04:05:42;;;;;;;;;;;2.70;94.10;;;;;;5003716;28;20352;-78
2023/01/28 04:08:10;;;;;;;;;;;2.70;94.10;;;;;;5003327;28;20667;-78
2023/01/28 04:10:37;;;;;;;;;;;2.70;94.20;;;;;;5004106;28;20012;-77
2023/01/28 04:13:04;;;;;;;;;;;2.70;94.20;;;;;;5002336;28;20719;-77
2023/01/28 04:15:31;;;;;;;;;;;2.70;94.20;;;;;;5001393;28;19944;-78
2023/01/28 04:17:57;;;;;;;;;;;2.60;94.10;;;;;;5001093;28;20330;-78
2023/01/28 04:20:24;;;;;;;;;;;2.70;94.20;;;;;;5003061;28;19944;-77
2023/01/28 04:22:50;;;;;;;;;;;2.70;94.20;;;;;;5000574;28;19941;-77
2023/01/28 04:25:18;;;;;;;;;;;2.70;94.20;;;;;;4998487;28;20632;-78
2023/01/28 04:27:45;;;;;;;;;;;2.70;94.20;;;;;;5002187;28;19934;-78
2023/01/28 04:30:12;;;;;;;;;;;2.70;94.30;;;;;;5008052;28;19937;-78
2023/01/28 04:32:38;;;;;;;;;;;2.70;94.30;;;;;;5002329;28;19940;-78
2023/01/28 04:35:05;;;;;;;;;;;2.60;94.60;;;;;;5004967;28;20016;-78
2023/01/28 04:37:31;;;;;;;;;;;2.70;94.30;;;;;;5004869;28;19937;-78
2023/01/28 04:39:58;;;;;;;;;;;2.70;94.30;;;;;;5003960;28;19940;-79
2023/01/28 04:42:26;;;;;;;;;;;2.70;94.30;;;;;;5002133;28;19968;-79
2023/01/28 04:44:52;;;;;;;;;;;2.60;94.30;;;;;;5001580;28;19936;-79
2023/01/28 04:47:19;;;;;;;;;;;2.70;94.30;;;;;;5001460;28;19991;-81
2023/01/28 04:49:46;;;;;;;;;;;2.70;94.30;;;;;;5002877;28;19939;-78
2023/01/28 04:52:12;;;;;;;;;;;2.70;94.30;;;;;;5009871;28;19936;-78
2023/01/28 04:54:39;;;;;;;;;;;2.70;94.40;;;;;;5004132;28;19933;-78
2023/01/28 04:57:05;;;;;;;;;;;2.70;94.40;;;;;;5005750;28;20462;-78
2023/01/28 04:59:33;;;;;;;;;;;2.70;94.40;;;;;;5008303;28;20036;-79
2023/01/28 05:02:00;;;;;;;;;;;2.70;94.40;;;;;;5008058;28;20411;-78
2023/01/28 05:04:26;;;;;;;;;;;2.70;94.40;;;;;;5008158;28;20391;-78
2023/01/28 05:06:53;;;;;;;;;;;2.70;94.50;;;;;;5005216;28;19933;-77
2023/01/28 05:09:19;;;;;;;;;;;2.70;94.50;;;;;;5008381;28;19929;-80
2023/01/28 05:11:46;;;;;;;;;;;2.70;94.50;;;;;;5004616;28;19930;-78
2023/01/28 05:14:12;;;;;;;;;;;2.70;94.50;;;;;;5005130;28;20673;-77
2023/01/28 05:16:40;;;;;;;;;;;2.70;94.60;;;;;;5016113;28;19975;-78
2023/01/28 05:19:07;;;;;;;;;;;2.70;94.60;;;;;;5010170;28;19929;-77
2023/01/28 05:21:33;;;;;;;;;;;2.70;94.60;;;;;;5012915;28;19937;-78
2023/01/28 05:24:00;;;;;;;;;;;2.60;94.60;;;;;;5006734;28;19937;-78
2023/01/28 05:26:26;;;;;;;;;;;2.70;94.70;;;;;;5005048;28;19936;-79
2023/01/28 05:28:53;;;;;;;;;;;2.70;95.30;;;;;;5008455;28;20415;-79
2023/01/28 05:31:19;;;;;;;;;;;2.70;95.50;;;;;;5010508;28;19930;-79
2023/01/28 05:33:47;;;;;;;;;;;2.60;95.60;;;;;;5016410;28;19929;-79
2023/01/28 05:36:14;;;;;;;;;;;2.60;95.60;;;;;;5013312;28;19926;-79
2023/01/28 05:38:40;;;;;;;;;;;2.70;95.60;;;;;;5015240;28;20346;-79
2023/01/28 05:41:07;;;;;;;;;;;2.70;95.60;;;;;;5008505;28;19929;-78
2023/01/28 05:43:33;;;;;;;;;;;2.70;95.60;;;;;;5010446;28;19933;-78
2023/01/28 05:46:00;;;;;;;;;;;2.70;95.60;;;;;;5010560;28;19929;-79
2023/01/28 05:48:26;;;;;;;;;;;2.70;95.60;;;;;;5009001;28;19933;-79
2023/01/28 05:50:54;;;;;;;;;;;2.60;95.60;;;;;;5013338;28;19929;-79
2023/01/28 05:53:21;;;;;;;;;;;2.70;95.60;;;;;;5012166;28;19937;-79
2023/01/28 05:55:48;;;;;;;;;;;2.70;95.60;;;;;;5013787;28;19929;-79
2023/01/28 05:58:14;;;;;;;;;;;2.60;95.60;;;;;;5009130;28;20035;-78
2023/01/28 06:00:41;;;;;;;;;;;2.60;95.60;;;;;;5008385;28;20020;-79
2023/01/28 06:03:07;;;;;;;;;;;2.70;95.60;;;;;;5007760;28;19926;-80
2023/01/28 06:05:34;;;;;;;;;;;2.60;96.00;;;;;;5010003;28;19944;-79
2023/01/28 06:08:02;;;;;;;;;;;2.70;95.70;;;;;;5003698;28;19933;-79
2023/01/28 06:10:28;;;;;;;;;;;2.60;95.60;;;;;;5014988;28;19934;-79
2023/01/28 06:12:55;;;;;;;;;;;2.60;95.60;;;;;;5020544;28;19936;-79
2023/01/28 06:15:22;;;;;;;;;;;2.60;95.60;;;;;;5011665;28;20366;-79
2023/01/28 06:17:48;;;;;;;;;;;2.60;95.60;;;;;;5011073;28;19984;-79
2023/01/28 06:20:15;;;;;;;;;;;2.60;95.70;;;;;;5007179;28;19933;-79
2023/01/28 06:22:42;;;;;;;;;;;2.60;95.70;;;;;;5010135;28;19940;-79
2023/01/28 06:25:10;;;;;;;;;;;2.70;95.70;;;;;;5011487;28;19991;-80
2023/01/28 06:27:36;;;;;;;;;;;2.60;95.70;;;;;;5010620;28;19929;-79
2023/01/28 06:30:03;;;;;;;;;;;2.60;95.70;;;;;;5009575;28;19942;-79
2023/01/28 06:32:31;;;;;;;;;;;2.60;95.70;;;;;;5007313;28;19933;-79
2023/01/28 06:34:57;;;;;;;;;;;2.60;95.80;;;;;;5007166;28;19936;-80
2023/01/28 06:37:25;;;;;;;;;;;2.60;95.80;;;;;;5007787;28;19929;-80
2023/01/28 06:39:51;;;;;;;;;;;2.60;95.80;;;;;;5009084;28;19972;-81
2023/01/28 06:42:19;;;;;;;;;;;2.60;95.80;;;;;;5010536;28;20411;-79
2023/01/28 06:44:46;;;;;;;;;;;2.60;95.80;;;;;;5010267;28;19936;-80
2023/01/28 06:47:14;;;;;;;;;;;2.60;95.80;;;;;;5009087;28;19940;-80
2023/01/28 06:49:40;;;;;;;;;;;2.60;95.90;;;;;;5009434;28;19930;-82
2023/01/28 06:52:07;;;;;;;;;;;2.60;95.80;;;;;;5009279;28;19932;-79
2023/01/28 06:54:33;;;;;;;;;;;2.60;95.90;;;;;;5013104;28;19935;-79
2023/01/28 06:57:00;;;;;;;;;;;2.60;95.90;;;;;;5008682;28;19933;-80
2023/01/28 06:59:28;;;;;;;;;;;2.60;95.90;;;;;;5009290;28;19937;-79
2023/01/28 07:01:54;;;;;;;;;;;2.60;95.90;;;;;;5010176;28;20288;-79
2023/01/28 07:04:21;;;;;;;;;;;2.60;95.90;;;;;;5009142;28;20462;-79
2023/01/28 07:06:47;;;;;;;;;;;2.60;95.90;;;;;;5012869;28;19937;-80
2023/01/28 07:09:14;;;;;;;;;;;2.60;95.90;;;;;;5008248;28;19933;-79
2023/01/28 07:11:40;;;;;;;;;;;2.60;96.00;;;;;;5010592;28;19930;-79
2023/01/28 07:14:07;;;;;;;;;;;2.60;95.90;;;;;;5014718;28;19990;-80
2023/01/28 07:16:35;;;;;;;;;;;2.60;96.00;;;;;;5014668;28;19933;-80
2023/01/28 07:19:01;;;;;;;;;;;2.60;96.00;;;;;;5013513;28;19934;-80
2023/01/28 07:21:28;;;;;;;;;;;2.60;96.00;;;;;;5014492;28;19937;-80
2023/01/28 07:23:54;;;;;;;;;;;2.60;96.00;;;;;;5013612;28;19936;-79
2023/01/28 07:26:22;;;;;;;;;;;2.60;96.10;;;;;;5010220;28;19930;-80
2023/01/28 07:28:49;;;;;;;;;;;2.60;96.10;;;;;;5016058;28;19975;-80
2023/01/28 07:31:15;;;;;;;;;;;2.60;96.10;;;;;;5011793;28;19936;-80
2023/01/28 07:33:43;;;;;;;;;;;2.60;96.10;;;;;;5007709;28;19929;-80
2023/01/28 07:36:10;;;;;;;;;;;2.60;96.10;;;;;;5009918;28;19964;-80
2023/01/28 07:38:36;;;;;;;;;;;2.60;96.10;;;;;;5005445;28;19930;-80
2023/01/28 07:41:03;;;;;;;;;;;2.60;96.10;;;;;;5009134;28;19929;-80
2023/01/28 07:43:29;;;;;;;;;;;2.60;96.10;;;;;;5011199;28;19929;-80
2023/01/28 07:45:56;;;;;;;;;;;2.60;96.10;;;;;;5013323;28;20036;-81
2023/01/28 07:48:22;;;;;;;;;;;2.60;96.10;;;;;;5011041;28;19933;-81
2023/01/28 07:50:50;;;;;;;;;;;2.50;96.10;;;;;;5010831;28;19937;-81
2023/01/28 07:53:17;;;;;;;;;;;2.60;96.20;;;;;;5011745;28;19963;-80
2023/01/28 07:55:43;;;;;;;;;;;2.60;96.20;;;;;;5012872;28;19991;-80
2023/01/28 07:58:11;;;;;;;;;;;2.60;96.20;;;;;;5009606;28;19929;-81
2023/01/28 08:00:37;;;;;;;;;;;2.60;96.20;;;;;;5004373;28;19929;-80
2023/01/28 08:03:05;;;;;;;;;;;2.60;96.30;;;;;;5009163;28;20463;-80
2023/01/28 08:05:37;;;;;;;;;;;2.60;96.30;;;;;;5008089;28;20032;-80
2023/01/28 08:08:05;;;;;;;;;;;2.50;96.20;;;;;;5011843;28;20249;-80
2023/01/28 08:10:32;;;;;;;;;;;2.60;96.20;;;;;;5006618;28;19949;-80
2023/01/28 08:12:59;;;;;;;;;;;2.60;96.30;;;;;;5009623;28;19940;-80
2023/01/28 08:15:25;;;;;;;;;;;2.60;96.20;;;;;;5012195;28;19933;-80
2023/01/28 08:17:53;;;;;;;;;;;2.60;96.30;;;;;;5014227;28;19938;-80
2023/01/28 08:20:20;;;;;;;;;;;2.60;96.30;;;;;;5010007;28;19929;-80
2023/01/28 08:22:47;;;;;;;;;;;2.60;96.30;;;;;;5005552;28;19972;-80
2023/01/28 08:25:15;;;;;;;;;;;2.50;96.30;;;;;;5005642;28;19929;-80
2023/01/28 08:27:41;;;;;;;;;;;2.60;96.30;;;;;;5008464;28;19929;-79
2023/01/28 08:30:09;;;;;;;;;;;2.60;96.30;;;;;;5012574;28;19996;-82
2023/01/28 08:32:35;;;;;;;;;;;2.60;96.30;;;;;;5008339;28;19933;-80
2023/01/28 08:35:02;;;;;;;;;;;2.60;96.30;;;;;;5009330;28;19938;-80
2023/01/28 08:37:29;;;;;;;;;;;2.60;96.30;;;;;;5012911;28;20381;-80
2023/01/28 08:39:55;;;;;;;;;;;2.60;96.40;;;;;;5000867;28;19940;-79
2023/01/28 08:42:23;;;;;;;;;;;2.60;96.40;;;;;;4991471;28;19933;-78
2023/01/28 08:44:50;;;;;;;;;;;2.50;96.40;;;;;;5004985;28;19936;-77
2023/01/28 08:47:16;;;;;;;;;;;2.60;96.40;;;;;;4989308;28;19944;-78
2023/01/28 08:49:43;;;;;;;;;;;2.60;96.40;;;;;;4993376;28;20033;-79
2023/01/28 08:52:09;;;;;;;;;;;2.60;96.40;;;;;;4995884;28;19936;-77
2023/01/28 08:54:36;;;;;;;;;;;2.60;96.50;;;;;;4993538;28;19933;-78
2023/01/28 08:57:03;;;;;;;;;;;2.60;96.50;;;;;;5002052;28;20094;-78
2023/01/28 08:59:31;;;;;;;;;;;2.60;96.50;;;;;;5001970;28;19929;-79
2023/01/28 09:01:57;;;;;;;;;;;2.60;96.50;;;;;;5002834;28;20031;-75
2023/01/28 09:04:24;;;;;;;;;;;2.60;96.40;;;;;;5007761;28;19937;-76
2023/01/28 09:06:50;;;;;;;;;;;2.60;96.50;;;;;;5005740;28;19937;-76
2023/01/28 09:09:17;;;;;;;;;;;2.60;96.40;;;;;;5003671;28;19936;-75
2023/01/28 09:11:43;;;;;;;;;;;2.60;96.70;;;;;;5009279;28;19936;-76
2023/01/28 09:14:10;;;;;;;;;;;2.60;96.40;;;;;;5014481;28;19935;-76
2023/01/28 09:16:38;;;;;;;;;;;2.60;96.40;;;;;;5011181;28;19933;-75
2023/01/28 09:19:04;;;;;;;;;;;2.60;96.40;;;;;;5016193;28;20038;-75
2023/01/28 09:21:31;;;;;;;;;;;2.60;96.40;;;;;;5007486;28;19930;-76
2023/01/28 09:23:57;;;;;;;;;;;2.60;96.40;;;;;;5011461;28;20379;-76
2023/01/28 09:26:24;;;;;;;;;;;2.60;96.40;;;;;;4999552;28;20012;-75
2023/01/28 09:28:50;;;;;;;;;;;2.60;96.40;;;;;;5011449;28;19983;-75
2023/01/28 09:31:17;;;;;;;;;;;2.60;96.40;;;;;;5002314;28;20273;-79
2023/01/28 09:33:47;;;;;;;;;;;2.60;96.40;;;;;;5008767;28;19936;-79
2023/01/28 09:36:13;;;;;;;;;;;2.60;96.40;;;;;;4996453;28;19930;-78
2023/01/28 09:38:40;;;;;;;;;;;2.70;96.40;;;;;;5003474;28;20395;-78
2023/01/28 09:41:12;;;;;;;;;;;2.70;96.30;;;;;;5005042;28;19929;-78
2023/01/28 09:43:48;;;;;;;;;;;2.70;96.30;;;;;;5000294;28;19937;-79
2023/01/28 09:46:17;;;;;;;;;;;2.70;96.30;;;;;;5001235;28;20334;-78
2023/01/28 09:48:47;;;;;;;;;;;2.70;96.30;;;;;;5008590;28;19933;-78
2023/01/28 09:51:22;;;;;;;;;;;2.70;96.30;;;;;;5008110;28;20455;-79
2023/01/28 09:53:52;;;;;;;;;;;2.70;96.30;;;;;;5011262;28;19964;-79
2023/01/28 09:56:24;;;;;;;;;;;2.70;96.20;;;;;;5005611;28;19952;-79
2023/01/28 09:58:50;;;;;;;;;;;2.70;96.20;;;;;;5008850;28;20039;-79
2023/01/28 10:01:36;;;;;;;;;;;2.70;96.20;;;;;;5014406;28;19933;-79
2023/01/28 10:04:09;;;;;;;;;;;2.70;96.30;;;;;;5008826;28;19934;-77
2023/01/28 10:06:43;;;;;;;;;;;2.70;96.30;;;;;;5007027;28;19960;-78
2023/01/28 10:09:18;;;;;;;;;;;2.70;96.30;;;;;;5007022;28;19980;-78
2023/01/28 10:11:52;;;;;;;;;;;2.70;96.30;;;;;;5008274;28;19936;-77
2023/01/28 10:14:23;;;;;;;;;;;2.70;96.30;;;;;;5003369;28;19933;-77
2023/01/28 10:16:51;;;;;;;;;;;2.70;96.30;;;;;;5002097;28;19940;-78
2023/01/28 10:19:22;;;;;;;;;;;2.80;96.30;;;;;;5001928;28;19979;-78
2023/01/28 10:21:50;;;;;;;;;;;2.80;96.40;;;;;;5006656;28;19929;-78
2023/01/28 10:24:18;;;;;;;;;;;2.70;96.30;;;;;;5008111;28;19937;-78
2023/01/28 10:26:45;;;;;;;;;;;2.80;96.30;;;;;;5007122;28;19930;-78
2023/01/28 10:29:14;;;;;;;;;;;2.80;96.40;;;;;;5007331;28;20639;-78
2023/01/28 10:31:44;;;;;;;;;;;2.80;96.40;;;;;;5006378;28;19933;-78
2023/01/28 10:34:11;;;;;;;;;;;2.80;96.40;;;;;;5004618;28;19929;-78
2023/01/28 10:36:38;;;;;;;;;;;2.80;96.30;;;;;;5000424;28;19937;-78
2023/01/28 10:39:07;;;;;;;;;;;2.80;96.30;;;;;;5000624;28;19930;-77
2023/01/28 10:41:34;;;;;;;;;;;2.80;96.30;;;;;;4997448;28;20284;-78
2023/01/28 10:44:01;;;;;;;;;;;2.80;96.40;;;;;;5004023;28;20316;-78
2023/01/28 10:46:29;;;;;;;;;;;2.80;96.40;;;;;;5013213;28;20110;-78
2023/01/28 10:48:58;;;;;;;;;;;2.80;96.40;;;;;;4999906;28;19941;-79
2023/01/28 10:51:32;;;;;;;;;;;2.80;96.40;;;;;;5000372;28;19929;-77
2023/01/28 10:54:00;;;;;;;;;;;2.80;96.40;;;;;;5002083;28;20024;-78
2023/01/28 10:56:28;;;;;;;;;;;2.80;96.40;;;;;;5010340;28;19930;-78
2023/01/28 10:58:58;;;;;;;;;;;2.90;96.50;;;;;;5006015;28;19960;-79
2023/01/28 11:01:25;;;;;;;;;;;2.80;96.50;;;;;;5002894;28;19929;-79
2023/01/28 11:03:54;;;;;;;;;;;2.80;96.40;;;;;;5006553;28;19933;-77
2023/01/28 11:06:25;;;;;;;;;;;2.90;96.40;;;;;;4998208;28;19929;-77
2023/01/28 11:08:51;;;;;;;;;;;2.90;96.40;;;;;;5006593;28;20020;-79
2023/01/28 11:11:24;;;;;;;;;;;2.90;96.40;;;;;;5005736;28;19929;-79
2023/01/28 11:13:52;;;;;;;;;;;2.90;96.40;;;;;;4998682;28;19936;-78
2023/01/28 11:16:19;;;;;;;;;;;2.90;96.40;;;;;;5004028;28;20434;-79
2023/01/28 11:18:48;;;;;;;;;;;2.90;96.40;;;;;;5005694;28;19937;-79
2023/01/28 11:21:16;;;;;;;;;;;2.90;96.40;;;;;;4998253;28;19944;-76
2023/01/28 11:23:49;;;;;;;;;;;2.90;96.30;;;;;;4998138;28;19934;-78
2023/01/28 11:26:17;;;;;;;;;;;2.90;96.30;;;;;;5002819;28;19936;-77
2023/01/28 11:28:45;;;;;;;;;;;2.90;96.60;;;;;;5007746;28;20437;-78
2023/01/28 11:31:14;;;;;;;;;;;2.90;96.30;;;;;;5004756;28;19964;-78
2023/01/28 11:33:44;;;;;;;;;;;2.90;96.30;;;;;;5005388;28;19929;-77
2023/01/28 11:36:14;;;;;;;;;;;2.90;96.30;;;;;;5002296;28;19937;-77
2023/01/28 11:38:47;;;;;;;;;;;2.90;96.30;;;;;;5000311;28;19930;-77
2023/01/28 11:41:15;;;;;;;;;;;2.90;96.30;;;;;;5006830;28;19933;-78
2023/01/28 11:43:44;;;;;;;;;;;3.00;96.30;;;;;;5006042;28;19929;-78
2023/01/28 11:46:17;;;;;;;;;;;2.90;96.30;;;;;;5004807;28;19929;-77
2023/01/28 11:48:50;;;;;;;;;;;3.00;96.30;;;;;;5004087;28;19937;-78
2023/01/28 11:51:22;;;;;;;;;;;3.00;96.30;;;;;;5002788;28;20450;-77
2023/01/28 11:53:59;;;;;;;;;;;3.00;96.20;;;;;;5008509;28;19936;-77
2023/01/28 11:56:35;;;;;;;;;;;3.00;96.20;;;;;;5007144;28;20706;-78
2023/01/28 11:59:08;;;;;;;;;;;3.00;96.20;;;;;;5002822;28;19933;-78
2023/01/28 12:01:39;;;;;;;;;;;3.00;96.20;;;;;;5004411;28;21088;-77
2023/01/28 12:04:23;;;;;;;;;;;3.00;96.10;;;;;;5004415;28;20029;-77
2023/01/28 12:06:54;;;;;;;;;;;3.10;96.20;;;;;;5001707;28;19984;-76
2023/01/28 12:09:22;;;;;;;;;;;3.00;96.10;;;;;;5006991;28;19974;-77
2023/01/28 12:12:11;;;;;;;;;;;3.00;96.10;;;;;;5005731;28;20308;-77
2023/01/28 12:14:44;;;;;;;;;;;3.10;96.00;;;;;;5006759;28;19941;-78
2023/01/28 12:17:17;;;;;;;;;;;3.10;96.00;;;;;;5008641;28;20541;-77
2023/01/28 12:19:52;;;;;;;;;;;3.10;96.00;;;;;;5004521;28;19937;-78
2023/01/28 12:22:25;;;;;;;;;;;3.10;96.00;;;;;;5009155;28;19929;-77
2023/01/28 12:25:02;;;;;;;;;;;3.10;96.00;;;;;;5005976;28;19934;-76
2023/01/28 12:27:34;;;;;;;;;;;3.10;96.00;;;;;;5008733;28;19941;-77
2023/01/28 12:30:06;;;;;;;;;;;3.10;96.00;;;;;;5007931;28;19987;-78
2023/01/28 12:32:41;;;;;;;;;;;3.20;96.00;;;;;;5002335;28;19925;-77
2023/01/28 12:35:18;;;;;;;;;;;3.10;95.90;;;;;;5002523;28;19944;-77
2023/01/28 12:37:52;;;;;;;;;;;3.10;95.80;;;;;;5001931;28;19937;-78
2023/01/28 12:40:25;;;;;;;;;;;3.20;95.80;;;;;;5002679;28;19945;-77
2023/01/28 12:42:54;;;;;;;;;;;3.20;95.80;;;;;;5003036;28;19940;-78
2023/01/28 12:45:23;;;;;;;;;;;3.20;96.10;;;;;;5001640;28;20004;-77
2023/01/28 12:47:54;;;;;;;;;;;3.20;95.70;;;;;;5005953;28;19971;-77
2023/01/28 12:50:22;;;;;;;;;;;3.20;95.60;;;;;;4999375;28;19933;-78
2023/01/28 12:52:51;;;;;;;;;;;3.20;95.70;;;;;;5000195;28;20016;-77
2023/01/28 12:55:20;;;;;;;;;;;3.20;95.60;;;;;;4998923;28;20031;-77
2023/01/28 12:57:47;;;;;;;;;;;3.30;95.60;;;;;;5007152;28;20294;-77
2023/01/28 13:00:19;;;;;;;;;;;3.30;95.60;;;;;;5004944;28;19941;-78
2023/01/28 13:02:50;;;;;;;;;;;3.30;95.60;;;;;;4998739;28;20016;-77
2023/01/28 13:05:20;;;;;;;;;;;3.30;95.50;;;;;;5005943;28;19929;-78
2023/01/28 13:07:49;;;;;;;;;;;3.30;95.50;;;;;;5002941;28;19934;-79
2023/01/28 13:10:19;;;;;;;;;;;3.30;95.40;;;;;;5005263;28;20356;-79
2023/01/28 13:12:46;;;;;;;;;;;3.30;95.40;;;;;;5006550;28;19933;-78
2023/01/28 13:15:15;;;;;;;;;;;3.40;95.40;;;;;;5004360;28;19933;-78
2023/01/28 13:17:53;;;;;;;;;;;3.30;95.30;;;;;;5003701;28;19934;-78
2023/01/28 13:20:30;;;;;;;;;;;3.30;95.30;;;;;;5001944;28;19930;-77
2023/01/28 13:23:00;;;;;;;;;;;3.40;95.30;;;;;;5003236;28;19936;-78
2023/01/28 13:25:27;;;;;;;;;;;3.30;95.20;;;;;;5006997;28;20357;-78
2023/01/28 13:27:55;;;;;;;;;;;3.30;95.20;;;;;;5004980;28;19933;-77
2023/01/28 13:30:23;;;;;;;;;;;3.30;95.10;;;;;;5001531;28;19940;-77
2023/01/28 13:32:55;;;;;;;;;;;3.30;95.10;;;;;;4995132;28;20399;-78
2023/01/28 13:35:28;;;;;;;;;;;3.30;95.10;;;;;;5004464;28;20065;-78
2023/01/28 13:37:56;;;;;;;;;;;3.40;95.00;;;;;;5008284;28;19975;-78
2023/01/28 13:40:25;;;;;;;;;;;3.30;95.00;;;;;;4999995;28;20020;-79
2023/01/28 13:42:58;;;;;;;;;;;3.40;95.00;;;;;;5013989;28;19984;-78
2023/01/28 13:45:25;;;;;;;;;;;3.30;95.20;;;;;;5001833;28;21833;-78
2023/01/28 13:47:53;;;;;;;;;;;3.40;94.90;;;;;;5006494;28;20355;-78
2023/01/28 13:50:21;;;;;;;;;;;3.40;94.90;;;;;;5004619;28;19929;-78
2023/01/28 13:52:50;;;;;;;;;;;3.40;94.90;;;;;;5019443;28;20078;-78
2023/01/28 13:55:20;;;;;;;;;;;3.40;94.80;;;;;;5007632;28;19936;-79
2023/01/28 13:58:11;;;;;;;;;;;3.40;94.70;;;;;;5009601;28;19929;-78
2023/01/28 14:00:45;;;;;;;;;;;3.40;94.70;;;;;;4967113;28;19926;-78
2023/01/28 14:03:28;;;;;;;;;;;3.40;94.60;;;;;;5005369;28;19926;-79
2023/01/28 14:06:06;;;;;;;;;;;3.40;94.60;;;;;;5009649;28;19934;-79
2023/01/28 14:08:47;;;;;;;;;;;3.40;94.60;;;;;;5008303;28;20390;-79
2023/01/28 14:11:24;;;;;;;;;;;3.40;94.50;;;;;;4994496;28;19933;-77
2023/01/28 14:14:15;;;;;;;;;;;3.50;94.70;;;;;;5006109;28;19932;-77
2023/01/28 14:16:50;;;;;;;;;;;3.60;94.70;;;;;;4990152;28;19992;-77
2023/01/28 14:19:19;;;;;;;;;;;3.80;94.70;;;;;;5010188;28;19952;-77
2023/01/28 14:21:45;;;;;;;;;;;3.90;94.60;;;;;;5010289;28;19941;-77
2023/01/28 14:24:15;;;;;;;;;;;4.10;94.50;;;;;;5009182;28;19929;-76
2023/01/28 14:26:46;;;;;;;;;;;4.20;94.30;;;;;;5007694;28;20011;-77
2023/01/28 14:29:20;;;;;;;;;;;4.30;94.20;;;;;;5007960;28;19937;-77
2023/01/28 14:31:47;;;;;;;;;;;4.40;94.10;;;;;;5002486;28;19929;-77
2023/01/28 14:34:19;;;;;;;;;;;4.50;93.90;;;;;;5005815;28;19939;-77
2023/01/28 14:36:47;;;;;;;;;;;4.60;93.80;;;;;;5002356;28;19933;-77
2023/01/28 14:39:18;;;;;;;;;;;4.60;93.60;;;;;;5006069;28;19933;-78
2023/01/28 14:41:48;;;;;;;;;;;4.70;93.50;;;;;;4998220;28;19984;-77
2023/01/28 14:44:22;;;;;;;;;;;4.70;93.40;;;;;;5008461;28;20391;-78
2023/01/28 14:46:56;;;;;;;;;;;4.80;93.30;;;;;;5003801;28;19933;-77
2023/01/28 14:49:27;;;;;;;;;;;4.80;93.20;;;;;;5008400;28;19929;-78
2023/01/28 14:52:10;;;;;;;;;;;4.80;93.10;;;;;;5011972;28;19928;-78
2023/01/28 14:54:47;;;;;;;;;;;4.80;93.00;;;;;;5009468;28;20319;-78
2023/01/28 14:57:26;;;;;;;;;;;4.90;93.00;;;;;;5003904;28;19932;-77
2023/01/28 14:59:54;;;;;;;;;;;4.90;92.90;;;;;;5007044;28;20004;-77
2023/01/28 15:02:21;;;;;;;;;;;4.90;92.80;;;;;;5009472;28;19932;-77
2023/01/28 15:04:48;;;;;;;;;;;4.90;92.80;;;;;;5007200;28;19936;-77
2023/01/28 15:07:16;;;;;;;;;;;4.90;92.70;;;;;;5010921;28;19936;-77
2023/01/28 15:09:43;;;;;;;;;;;4.90;92.60;;;;;;5009673;28;19936;-77
2023/01/28 15:12:09;;;;;;;;;;;4.90;92.90;;;;;;5010828;28;20056;-78
2023/01/28 15:14:38;;;;;;;;;;;4.90;92.50;;;;;;4998046;28;19929;-78